sensor_id;sensor_type;location;lat;lon;timestamp;temperature;humidity
50570;DHT22;36525;49.398;7.614;2023-07-24T00:01:56;17.90;99.90
50570;DHT22;36525;49.398;7.614;2023-07-24T00:04:23;17.80;99.90
50570;DHT22;36525;49.398;7.614;2023-07-24T00:06:49;17.80;99.90
50570;DHT22;36525;49.398;7.614;2023-07-24T00:09:16;17.80;99.90
50570;DHT22;36525;49.398;7.614;2023-07-24T00:11:43;17.70;99.90
50570;DHT22;36525;49.398;7.614;2023-07-24T00:14:10;17.60;99.90
50570;DHT22;36525;49.398;7.614;2023-07-24T00:16:37;17.60;99.90
50570;DHT22;36525;49.398;7.614;2023-07-24T00:19:05;17.60;99.90
50570;DHT22;36525;49.398;7.614;2023-07-24T00:21:32;17.60;99.90
50570;DHT22;36525;49.398;7.614;2023-07-24T00:23:59;17.60;99.90
50570;DHT22;36525;49.398;7.614;2023-07-24T00:26:26;17.60;99.90
50570;DHT22;36525;49.398;7.614;2023-07-24T00:28:53;17.60;99.90
50570;DHT22;36525;49.398;7.614;2023-07-24T00:31:20;17.70;99.90
50570;DHT22;36525;49.398;7.614;2023-07-24T00:33:47;17.70;99.90
50570;DHT22;36525;49.398;7.614;2023-07-24T00:36:14;17.80;99.90
50570;DHT22;36525;49.398;7.614;2023-07-24T00:38:41;17.70;99.90
50570;DHT22;36525;49.398;7.614;2023-07-24T00:41:08;17.70;99.90
50570;DHT22;36525;49.398;7.614;2023-07-24T00:43:35;17.70;99.90
50570;DHT22;36525;49.398;7.614;2023-07-24T00:46:03;17.70;99.90
50570;DHT22;36525;49.398;7.614;2023-07-24T00:48:30;17.60;99.90
50570;DHT22;36525;49.398;7.614;2023-07-24T00:50:57;17.60;99.90
50570;DHT22;36525;49.398;7.614;2023-07-24T00:53:24;17.50;99.90
50570;DHT22;36525;49.398;7.614;2023-07-24T00:55:52;17.50;99.90
50570;DHT22;36525;49.398;7.614;2023-07-24T00:58:20;17.50;99.90
50570;DHT22;36525;49.398;7.614;2023-07-24T01:00:48;17.40;99.90
50570;DHT22;36525;49.398;7.614;2023-07-24T01:03:15;17.30;99.90
50570;DHT22;36525;49.398;7.614;2023-07-24T01:05:42;17.30;99.90
50570;DHT22;36525;49.398;7.614;2023-07-24T01:08:09;17.30;99.90
50570;DHT22;36525;49.398;7.614;2023-07-24T01:10:36;17.40;99.90
50570;DHT22;36525;49.398;7.614;2023-07-24T01:13:21;17.50;99.90
50570;DHT22;36525;49.398;7.614;2023-07-24T01:15:56;17.50;99.90
50570;DHT22;36525;49.398;7.614;2023-07-24T01:18:30;17.30;99.90
50570;DHT22;36525;49.398;7.614;2023-07-24T01:20:59;17.00;99.90
50570;DHT22;36525;49.398;7.614;2023-07-24T01:26:23;16.80;99.90
50570;DHT22;36525;49.398;7.614;2023-07-24T01:28:51;16.80;99.90
50570;DHT22;36525;49.398;7.614;2023-07-24T01:31:18;16.90;99.90
50570;DHT22;36525;49.398;7.614;2023-07-24T01:33:45;17.00;99.90
50570;DHT22;36525;49.398;7.614;2023-07-24T01:36:15;17.00;99.90
50570;DHT22;36525;49.398;7.614;2023-07-24T01:38:44;17.10;99.90
50570;DHT22;36525;49.398;7.614;2023-07-24T01:41:13;17.10;99.90
50570;DHT22;36525;49.398;7.614;2023-07-24T01:43:40;17.20;99.90
50570;DHT22;36525;49.398;7.614;2023-07-24T01:46:07;17.10;99.90
50570;DHT22;36525;49.398;7.614;2023-07-24T01:48:35;17.10;99.90
50570;DHT22;36525;49.398;7.614;2023-07-24T01:51:02;17.10;99.90
50570;DHT22;36525;49.398;7.614;2023-07-24T01:53:29;17.10;99.90
50570;DHT22;36525;49.398;7.614;2023-07-24T01:55:58;17.00;99.90
50570;DHT22;36525;49.398;7.614;2023-07-24T01:58:25;16.90;99.90
50570;DHT22;36525;49.398;7.614;2023-07-24T02:00:55;16.90;99.90
50570;DHT22;36525;49.398;7.614;2023-07-24T02:03:22;16.80;99.90
50570;DHT22;36525;49.398;7.614;2023-07-24T02:05:50;16.80;99.90
50570;DHT22;36525;49.398;7.614;2023-07-24T02:08:21;16.70;99.90
50570;DHT22;36525;49.398;7.614;2023-07-24T02:10:50;16.50;99.90
50570;DHT22;36525;49.398;7.614;2023-07-24T02:13:20;16.40;99.90
50570;DHT22;36525;49.398;7.614;2023-07-24T02:15:47;16.30;99.90
50570;DHT22;36525;49.398;7.614;2023-07-24T02:18:15;16.30;99.90
50570;DHT22;36525;49.398;7.614;2023-07-24T02:20:49;16.20;99.90
50570;DHT22;36525;49.398;7.614;2023-07-24T02:23:17;16.10;99.90
50570;DHT22;36525;49.398;7.614;2023-07-24T02:25:44;16.20;99.90
50570;DHT22;36525;49.398;7.614;2023-07-24T02:28:11;16.40;99.90
50570;DHT22;36525;49.398;7.614;2023-07-24T02:30:39;16.60;99.90
50570;DHT22;36525;49.398;7.614;2023-07-24T02:33:09;16.80;99.90
50570;DHT22;36525;49.398;7.614;2023-07-24T02:35:40;16.80;99.90
50570;DHT22;36525;49.398;7.614;2023-07-24T02:38:08;16.80;99.90
50570;DHT22;36525;49.398;7.614;2023-07-24T02:40:35;16.70;99.90
50570;DHT22;36525;49.398;7.614;2023-07-24T02:43:03;16.80;99.90
50570;DHT22;36525;49.398;7.614;2023-07-24T02:45:30;16.80;99.90
50570;DHT22;36525;49.398;7.614;2023-07-24T02:47:57;16.80;99.90
50570;DHT22;36525;49.398;7.614;2023-07-24T02:50:24;16.80;99.90
50570;DHT22;36525;49.398;7.614;2023-07-24T02:52:51;16.60;99.90
50570;DHT22;36525;49.398;7.614;2023-07-24T02:55:18;16.60;99.90
50570;DHT22;36525;49.398;7.614;2023-07-24T02:57:45;16.60;99.90
50570;DHT22;36525;49.398;7.614;2023-07-24T03:00:13;16.70;99.90
50570;DHT22;36525;49.398;7.614;2023-07-24T03:02:40;16.70;99.90
50570;DHT22;36525;49.398;7.614;2023-07-24T03:05:07;16.60;99.90
50570;DHT22;36525;49.398;7.614;2023-07-24T03:07:35;16.50;99.90
50570;DHT22;36525;49.398;7.614;2023-07-24T03:10:03;16.40;99.90
50570;DHT22;36525;49.398;7.614;2023-07-24T03:12:30;16.30;99.90
50570;DHT22;36525;49.398;7.614;2023-07-24T03:14:57;16.10;99.90
50570;DHT22;36525;49.398;7.614;2023-07-24T03:17:24;15.90;99.90
50570;DHT22;36525;49.398;7.614;2023-07-24T03:19:51;15.80;99.90
50570;DHT22;36525;49.398;7.614;2023-07-24T03:22:18;15.70;99.90
50570;DHT22;36525;49.398;7.614;2023-07-24T03:24:45;15.70;99.90
50570;DHT22;36525;49.398;7.614;2023-07-24T03:27:13;15.70;99.90
50570;DHT22;36525;49.398;7.614;2023-07-24T03:29:40;15.70;99.90
50570;DHT22;36525;49.398;7.614;2023-07-24T03:32:08;15.70;99.90
50570;DHT22;36525;49.398;7.614;2023-07-24T03:34:35;15.70;99.90
50570;DHT22;36525;49.398;7.614;2023-07-24T03:37:02;15.80;99.90
50570;DHT22;36525;49.398;7.614;2023-07-24T03:39:29;15.90;99.90
50570;DHT22;36525;49.398;7.614;2023-07-24T03:41:56;15.80;99.90
50570;DHT22;36525;49.398;7.614;2023-07-24T03:44:24;15.80;99.90
50570;DHT22;36525;49.398;7.614;2023-07-24T03:46:51;15.70;99.90
50570;DHT22;36525;49.398;7.614;2023-07-24T03:49:18;15.60;99.90
50570;DHT22;36525;49.398;7.614;2023-07-24T03:51:45;15.60;99.90
50570;DHT22;36525;49.398;7.614;2023-07-24T03:54:12;15.60;99.90
50570;DHT22;36525;49.398;7.614;2023-07-24T03:56:39;15.70;99.90
50570;DHT22;36525;49.398;7.614;2023-07-24T03:59:06;15.70;99.90
50570;DHT22;36525;49.398;7.614;2023-07-24T04:01:34;15.70;99.90
50570;DHT22;36525;49.398;7.614;2023-07-24T04:04:01;15.80;99.90
50570;DHT22;36525;49.398;7.614;2023-07-24T04:06:28;15.90;99.90
50570;DHT22;36525;49.398;7.614;2023-07-24T04:08:57;15.90;99.90
50570;DHT22;36525;49.398;7.614;2023-07-24T04:11:24;15.80;99.90
50570;DHT22;36525;49.398;7.614;2023-07-24T04:13:51;15.80;99.90
50570;DHT22;36525;49.398;7.614;2023-07-24T04:16:18;15.80;99.90
50570;DHT22;36525;49.398;7.614;2023-07-24T04:18:46;15.80;99.90
50570;DHT22;36525;49.398;7.614;2023-07-24T04:21:13;15.70;99.90
50570;DHT22;36525;49.398;7.614;2023-07-24T04:23:40;15.60;99.90
50570;DHT22;36525;49.398;7.614;2023-07-24T04:26:07;15.60;99.90
50570;DHT22;36525;49.398;7.614;2023-07-24T04:28:34;15.70;99.90
50570;DHT22;36525;49.398;7.614;2023-07-24T04:31:01;15.80;99.90
50570;DHT22;36525;49.398;7.614;2023-07-24T04:33:28;15.80;99.90
50570;DHT22;36525;49.398;7.614;2023-07-24T04:35:57;15.90;99.90
50570;DHT22;36525;49.398;7.614;2023-07-24T04:38:24;16.00;99.90
50570;DHT22;36525;49.398;7.614;2023-07-24T04:40:51;16.10;99.90
50570;DHT22;36525;49.398;7.614;2023-07-24T04:43:18;16.30;99.90
50570;DHT22;36525;49.398;7.614;2023-07-24T04:45:45;16.40;99.90
50570;DHT22;36525;49.398;7.614;2023-07-24T04:48:12;16.60;99.90
50570;DHT22;36525;49.398;7.614;2023-07-24T04:50:39;16.70;99.90
50570;DHT22;36525;49.398;7.614;2023-07-24T04:53:06;16.80;99.90
50570;DHT22;36525;49.398;7.614;2023-07-24T04:55:33;16.70;99.90
50570;DHT22;36525;49.398;7.614;2023-07-24T04:58:01;16.80;99.90
50570;DHT22;36525;49.398;7.614;2023-07-24T05:00:28;16.90;99.90
50570;DHT22;36525;49.398;7.614;2023-07-24T05:02:55;17.00;99.90
50570;DHT22;36525;49.398;7.614;2023-07-24T05:05:22;17.00;99.90
50570;DHT22;36525;49.398;7.614;2023-07-24T05:07:49;17.10;99.90
50570;DHT22;36525;49.398;7.614;2023-07-24T05:10:16;17.20;99.90
50570;DHT22;36525;49.398;7.614;2023-07-24T05:12:43;17.30;99.90
50570;DHT22;36525;49.398;7.614;2023-07-24T05:15:10;17.40;99.90
50570;DHT22;36525;49.398;7.614;2023-07-24T05:17:38;17.40;99.90
50570;DHT22;36525;49.398;7.614;2023-07-24T05:20:05;17.40;99.90
50570;DHT22;36525;49.398;7.614;2023-07-24T05:22:34;17.40;99.90
50570;DHT22;36525;49.398;7.614;2023-07-24T05:25:01;17.50;99.90
50570;DHT22;36525;49.398;7.614;2023-07-24T05:27:28;17.30;99.90
50570;DHT22;36525;49.398;7.614;2023-07-24T05:29:58;17.30;99.90
50570;DHT22;36525;49.398;7.614;2023-07-24T05:32:25;17.30;99.90
50570;DHT22;36525;49.398;7.614;2023-07-24T05:34:52;17.30;99.90
50570;DHT22;36525;49.398;7.614;2023-07-24T05:37:19;17.30;99.90
50570;DHT22;36525;49.398;7.614;2023-07-24T05:39:46;17.40;99.90
50570;DHT22;36525;49.398;7.614;2023-07-24T05:42:13;17.40;99.90
50570;DHT22;36525;49.398;7.614;2023-07-24T05:44:40;17.40;99.90
50570;DHT22;36525;49.398;7.614;2023-07-24T05:47:07;17.60;99.90
50570;DHT22;36525;49.398;7.614;2023-07-24T05:49:34;17.70;99.90
50570;DHT22;36525;49.398;7.614;2023-07-24T05:52:01;17.70;99.90
50570;DHT22;36525;49.398;7.614;2023-07-24T05:54:28;17.80;99.90
50570;DHT22;36525;49.398;7.614;2023-07-24T05:56:55;17.80;99.90
50570;DHT22;36525;49.398;7.614;2023-07-24T05:59:22;17.70;99.90
50570;DHT22;36525;49.398;7.614;2023-07-24T06:01:49;17.70;99.90
50570;DHT22;36525;49.398;7.614;2023-07-24T06:04:16;17.80;99.90
50570;DHT22;36525;49.398;7.614;2023-07-24T06:06:43;17.90;99.90
50570;DHT22;36525;49.398;7.614;2023-07-24T06:09:11;17.80;99.90
50570;DHT22;36525;49.398;7.614;2023-07-24T06:11:38;17.80;99.90
50570;DHT22;36525;49.398;7.614;2023-07-24T06:14:05;17.80;99.90
50570;DHT22;36525;49.398;7.614;2023-07-24T06:16:32;17.90;99.90
50570;DHT22;36525;49.398;7.614;2023-07-24T06:18:59;17.90;99.90
50570;DHT22;36525;49.398;7.614;2023-07-24T06:21:26;18.00;99.90
50570;DHT22;36525;49.398;7.614;2023-07-24T06:23:53;18.00;99.90
50570;DHT22;36525;49.398;7.614;2023-07-24T06:26:20;18.00;99.90
50570;DHT22;36525;49.398;7.614;2023-07-24T06:28:47;18.10;99.90
50570;DHT22;36525;49.398;7.614;2023-07-24T06:31:14;18.20;99.90
50570;DHT22;36525;49.398;7.614;2023-07-24T06:33:42;18.40;99.90
50570;DHT22;36525;49.398;7.614;2023-07-24T06:36:09;18.60;99.90
50570;DHT22;36525;49.398;7.614;2023-07-24T06:38:37;18.90;99.90
50570;DHT22;36525;49.398;7.614;2023-07-24T06:41:04;19.00;99.90
50570;DHT22;36525;49.398;7.614;2023-07-24T06:43:31;19.00;99.90
50570;DHT22;36525;49.398;7.614;2023-07-24T06:45:58;19.00;99.90
50570;DHT22;36525;49.398;7.614;2023-07-24T06:48:25;19.10;99.90
50570;DHT22;36525;49.398;7.614;2023-07-24T06:50:52;19.10;99.90
50570;DHT22;36525;49.398;7.614;2023-07-24T06:53:19;19.20;99.90
50570;DHT22;36525;49.398;7.614;2023-07-24T06:55:47;19.30;99.90
50570;DHT22;36525;49.398;7.614;2023-07-24T06:58:13;19.20;99.90
50570;DHT22;36525;49.398;7.614;2023-07-24T07:00:40;19.30;99.90
50570;DHT22;36525;49.398;7.614;2023-07-24T07:03:07;19.30;99.90
50570;DHT22;36525;49.398;7.614;2023-07-24T07:05:35;19.30;99.90
50570;DHT22;36525;49.398;7.614;2023-07-24T07:08:02;19.20;99.90
50570;DHT22;36525;49.398;7.614;2023-07-24T07:10:30;19.30;99.90
50570;DHT22;36525;49.398;7.614;2023-07-24T07:12:58;19.40;99.90
50570;DHT22;36525;49.398;7.614;2023-07-24T07:15:25;19.50;99.90
50570;DHT22;36525;49.398;7.614;2023-07-24T07:17:52;19.30;99.90
50570;DHT22;36525;49.398;7.614;2023-07-24T07:20:19;19.30;99.90
50570;DHT22;36525;49.398;7.614;2023-07-24T07:22:46;19.20;99.90
50570;DHT22;36525;49.398;7.614;2023-07-24T07:25:13;19.20;99.90
50570;DHT22;36525;49.398;7.614;2023-07-24T07:27:40;19.20;99.90
50570;DHT22;36525;49.398;7.614;2023-07-24T07:30:08;19.20;99.90
50570;DHT22;36525;49.398;7.614;2023-07-24T07:32:35;19.20;99.90
50570;DHT22;36525;49.398;7.614;2023-07-24T07:35:03;19.20;99.90
50570;DHT22;36525;49.398;7.614;2023-07-24T07:37:31;19.30;99.90
50570;DHT22;36525;49.398;7.614;2023-07-24T07:39:58;19.30;99.90
50570;DHT22;36525;49.398;7.614;2023-07-24T07:42:25;19.40;99.90
50570;DHT22;36525;49.398;7.614;2023-07-24T07:44:52;19.40;99.90
50570;DHT22;36525;49.398;7.614;2023-07-24T07:47:19;19.40;99.90
50570;DHT22;36525;49.398;7.614;2023-07-24T07:49:46;19.30;99.90
50570;DHT22;36525;49.398;7.614;2023-07-24T07:52:14;19.40;99.90
50570;DHT22;36525;49.398;7.614;2023-07-24T07:54:47;19.50;99.90
50570;DHT22;36525;49.398;7.614;2023-07-24T07:57:15;19.60;99.90
50570;DHT22;36525;49.398;7.614;2023-07-24T07:59:42;19.70;99.90
50570;DHT22;36525;49.398;7.614;2023-07-24T08:02:09;20.10;99.90
50570;DHT22;36525;49.398;7.614;2023-07-24T08:04:37;20.10;99.90
50570;DHT22;36525;49.398;7.614;2023-07-24T08:07:04;20.00;99.90
50570;DHT22;36525;49.398;7.614;2023-07-24T08:09:31;20.10;99.90
50570;DHT22;36525;49.398;7.614;2023-07-24T08:11:59;20.20;99.90
50570;DHT22;36525;49.398;7.614;2023-07-24T08:14:26;20.40;99.90
50570;DHT22;36525;49.398;7.614;2023-07-24T08:16:53;20.50;99.90
50570;DHT22;36525;49.398;7.614;2023-07-24T08:19:20;20.70;99.90
50570;DHT22;36525;49.398;7.614;2023-07-24T08:21:47;20.80;99.90
50570;DHT22;36525;49.398;7.614;2023-07-24T08:24:14;21.10;99.90
50570;DHT22;36525;49.398;7.614;2023-07-24T08:26:41;21.30;99.90
50570;DHT22;36525;49.398;7.614;2023-07-24T08:29:08;21.50;99.90
50570;DHT22;36525;49.398;7.614;2023-07-24T08:31:36;21.40;99.90
50570;DHT22;36525;49.398;7.614;2023-07-24T08:34:03;21.30;99.90
50570;DHT22;36525;49.398;7.614;2023-07-24T08:36:30;21.10;99.90
50570;DHT22;36525;49.398;7.614;2023-07-24T08:38:58;21.00;99.90
50570;DHT22;36525;49.398;7.614;2023-07-24T08:41:25;20.80;99.90
50570;DHT22;36525;49.398;7.614;2023-07-24T08:43:52;20.80;99.90
50570;DHT22;36525;49.398;7.614;2023-07-24T08:46:20;20.80;99.90
50570;DHT22;36525;49.398;7.614;2023-07-24T08:48:49;20.70;99.90
50570;DHT22;36525;49.398;7.614;2023-07-24T08:51:17;20.60;99.90
50570;DHT22;36525;49.398;7.614;2023-07-24T08:53:46;20.60;99.90
50570;DHT22;36525;49.398;7.614;2023-07-24T08:56:14;20.60;99.90
50570;DHT22;36525;49.398;7.614;2023-07-24T08:58:41;20.60;99.90
50570;DHT22;36525;49.398;7.614;2023-07-24T09:01:09;20.70;99.90
50570;DHT22;36525;49.398;7.614;2023-07-24T09:03:37;20.80;99.90
50570;DHT22;36525;49.398;7.614;2023-07-24T09:06:05;20.80;99.90
50570;DHT22;36525;49.398;7.614;2023-07-24T09:08:35;20.80;99.90
50570;DHT22;36525;49.398;7.614;2023-07-24T09:11:08;20.80;99.90
50570;DHT22;36525;49.398;7.614;2023-07-24T09:13:40;20.90;99.90
50570;DHT22;36525;49.398;7.614;2023-07-24T09:16:09;21.10;99.90
50570;DHT22;36525;49.398;7.614;2023-07-24T09:18:40;21.40;99.90
50570;DHT22;36525;49.398;7.614;2023-07-24T09:21:10;21.90;99.90
50570;DHT22;36525;49.398;7.614;2023-07-24T09:23:40;22.20;99.90
50570;DHT22;36525;49.398;7.614;2023-07-24T09:26:11;22.20;99.90
50570;DHT22;36525;49.398;7.614;2023-07-24T09:28:38;22.20;99.90
50570;DHT22;36525;49.398;7.614;2023-07-24T09:31:05;21.70;99.90
50570;DHT22;36525;49.398;7.614;2023-07-24T09:33:37;21.70;99.90
50570;DHT22;36525;49.398;7.614;2023-07-24T09:36:07;21.60;99.90
50570;DHT22;36525;49.398;7.614;2023-07-24T09:38:36;21.50;99.90
50570;DHT22;36525;49.398;7.614;2023-07-24T09:41:04;21.40;99.90
50570;DHT22;36525;49.398;7.614;2023-07-24T09:43:33;21.60;99.90
50570;DHT22;36525;49.398;7.614;2023-07-24T09:46:07;21.80;99.90
50570;DHT22;36525;49.398;7.614;2023-07-24T09:48:37;21.90;99.90
50570;DHT22;36525;49.398;7.614;2023-07-24T09:51:11;21.90;99.90
50570;DHT22;36525;49.398;7.614;2023-07-24T09:56:25;22.40;99.90
50570;DHT22;36525;49.398;7.614;2023-07-24T09:59:10;22.40;99.90
50570;DHT22;36525;49.398;7.614;2023-07-24T10:01:39;22.60;99.90
50570;DHT22;36525;49.398;7.614;2023-07-24T10:04:07;22.70;99.90
50570;DHT22;36525;49.398;7.614;2023-07-24T10:06:35;22.60;99.90
50570;DHT22;36525;49.398;7.614;2023-07-24T10:09:02;22.60;99.90
50570;DHT22;36525;49.398;7.614;2023-07-24T10:11:29;22.60;99.90
50570;DHT22;36525;49.398;7.614;2023-07-24T10:13:57;22.30;99.90
50570;DHT22;36525;49.398;7.614;2023-07-24T10:16:25;22.20;99.90
50570;DHT22;36525;49.398;7.614;2023-07-24T10:18:53;21.90;99.90
50570;DHT22;36525;49.398;7.614;2023-07-24T10:21:27;22.00;99.90
50570;DHT22;36525;49.398;7.614;2023-07-24T10:23:59;22.10;99.90
50570;DHT22;36525;49.398;7.614;2023-07-24T10:26:27;22.00;99.90
50570;DHT22;36525;49.398;7.614;2023-07-24T10:28:54;22.10;99.90
50570;DHT22;36525;49.398;7.614;2023-07-24T10:31:22;22.00;99.90
50570;DHT22;36525;49.398;7.614;2023-07-24T10:33:54;22.00;99.90
50570;DHT22;36525;49.398;7.614;2023-07-24T10:36:23;22.00;99.90
50570;DHT22;36525;49.398;7.614;2023-07-24T10:38:55;22.00;99.90
50570;DHT22;36525;49.398;7.614;2023-07-24T10:41:37;21.90;99.90
50570;DHT22;36525;49.398;7.614;2023-07-24T10:44:06;21.80;99.90
50570;DHT22;36525;49.398;7.614;2023-07-24T10:46:39;21.80;99.90
50570;DHT22;36525;49.398;7.614;2023-07-24T10:49:08;22.00;99.90
50570;DHT22;36525;49.398;7.614;2023-07-24T10:51:36;21.90;99.90
50570;DHT22;36525;49.398;7.614;2023-07-24T10:54:05;21.80;99.90
50570;DHT22;36525;49.398;7.614;2023-07-24T10:56:32;22.00;99.90
50570;DHT22;36525;49.398;7.614;2023-07-24T10:59:03;22.10;99.90
50570;DHT22;36525;49.398;7.614;2023-07-24T11:01:32;22.40;99.90
50570;DHT22;36525;49.398;7.614;2023-07-24T11:04:00;22.60;99.90
50570;DHT22;36525;49.398;7.614;2023-07-24T11:06:27;22.70;99.90
50570;DHT22;36525;49.398;7.614;2023-07-24T11:08:59;22.80;99.90
50570;DHT22;36525;49.398;7.614;2023-07-24T11:11:34;22.60;99.90
50570;DHT22;36525;49.398;7.614;2023-07-24T11:14:03;22.50;99.90
50570;DHT22;36525;49.398;7.614;2023-07-24T11:16:31;22.70;99.90
50570;DHT22;36525;49.398;7.614;2023-07-24T11:19:00;22.90;99.90
50570;DHT22;36525;49.398;7.614;2023-07-24T11:21:27;23.30;99.90
50570;DHT22;36525;49.398;7.614;2023-07-24T11:23:56;23.50;99.90
50570;DHT22;36525;49.398;7.614;2023-07-24T11:26:25;23.70;99.90
50570;DHT22;36525;49.398;7.614;2023-07-24T11:28:53;24.10;99.90
50570;DHT22;36525;49.398;7.614;2023-07-24T11:31:21;24.30;99.90
50570;DHT22;36525;49.398;7.614;2023-07-24T11:33:52;24.00;99.90
50570;DHT22;36525;49.398;7.614;2023-07-24T11:36:20;24.10;99.90
50570;DHT22;36525;49.398;7.614;2023-07-24T11:38:48;24.10;99.90
50570;DHT22;36525;49.398;7.614;2023-07-24T11:41:16;23.90;99.90
50570;DHT22;36525;49.398;7.614;2023-07-24T11:43:48;23.80;99.90
50570;DHT22;36525;49.398;7.614;2023-07-24T11:46:27;24.40;99.90
50570;DHT22;36525;49.398;7.614;2023-07-24T11:48:56;24.40;99.90
50570;DHT22;36525;49.398;7.614;2023-07-24T11:51:26;24.60;99.90
50570;DHT22;36525;49.398;7.614;2023-07-24T11:54:08;25.20;99.90
50570;DHT22;36525;49.398;7.614;2023-07-24T11:56:37;25.20;99.90
50570;DHT22;36525;49.398;7.614;2023-07-24T11:59:12;25.00;99.90
50570;DHT22;36525;49.398;7.614;2023-07-24T12:01:49;24.80;99.90
50570;DHT22;36525;49.398;7.614;2023-07-24T12:04:17;24.90;99.90
50570;DHT22;36525;49.398;7.614;2023-07-24T12:06:44;24.60;99.90
50570;DHT22;36525;49.398;7.614;2023-07-24T12:09:12;24.60;99.90
50570;DHT22;36525;49.398;7.614;2023-07-24T12:11:41;24.70;99.90
50570;DHT22;36525;49.398;7.614;2023-07-24T12:14:13;24.60;99.90
50570;DHT22;36525;49.398;7.614;2023-07-24T12:16:41;23.90;99.90
50570;DHT22;36525;49.398;7.614;2023-07-24T12:19:08;23.40;99.90
50570;DHT22;36525;49.398;7.614;2023-07-24T12:21:35;23.10;99.90
50570;DHT22;36525;49.398;7.614;2023-07-24T12:24:02;23.00;99.90
50570;DHT22;36525;49.398;7.614;2023-07-24T12:26:29;22.60;99.90
50570;DHT22;36525;49.398;7.614;2023-07-24T12:28:56;22.10;99.90
50570;DHT22;36525;49.398;7.614;2023-07-24T12:31:26;22.00;99.90
50570;DHT22;36525;49.398;7.614;2023-07-24T12:33:53;21.60;99.90
50570;DHT22;36525;49.398;7.614;2023-07-24T12:36:23;21.30;99.90
50570;DHT22;36525;49.398;7.614;2023-07-24T12:38:50;21.00;99.90
50570;DHT22;36525;49.398;7.614;2023-07-24T12:41:18;20.70;99.90
50570;DHT22;36525;49.398;7.614;2023-07-24T12:43:45;20.50;99.90
50570;DHT22;36525;49.398;7.614;2023-07-24T12:46:12;20.40;99.90
50570;DHT22;36525;49.398;7.614;2023-07-24T12:48:39;20.40;99.90
50570;DHT22;36525;49.398;7.614;2023-07-24T12:51:06;20.30;99.90
50570;DHT22;36525;49.398;7.614;2023-07-24T12:53:33;20.30;99.90
50570;DHT22;36525;49.398;7.614;2023-07-24T12:56:20;20.30;99.90
50570;DHT22;36525;49.398;7.614;2023-07-24T12:58:47;20.40;99.90
50570;DHT22;36525;49.398;7.614;2023-07-24T13:01:14;20.70;99.90
50570;DHT22;36525;49.398;7.614;2023-07-24T13:03:41;21.20;99.90
50570;DHT22;36525;49.398;7.614;2023-07-24T13:06:08;21.40;99.90
50570;DHT22;36525;49.398;7.614;2023-07-24T13:08:35;21.70;99.90
50570;DHT22;36525;49.398;7.614;2023-07-24T13:11:03;22.00;99.90
50570;DHT22;36525;49.398;7.614;2023-07-24T13:13:30;21.80;99.90
50570;DHT22;36525;49.398;7.614;2023-07-24T13:15:57;21.70;99.90
50570;DHT22;36525;49.398;7.614;2023-07-24T13:18:24;22.10;99.90
50570;DHT22;36525;49.398;7.614;2023-07-24T13:20:54;22.80;99.90
50570;DHT22;36525;49.398;7.614;2023-07-24T13:23:21;23.10;99.90
50570;DHT22;36525;49.398;7.614;2023-07-24T13:25:48;22.80;99.90
50570;DHT22;36525;49.398;7.614;2023-07-24T13:28:20;22.20;99.90
50570;DHT22;36525;49.398;7.614;2023-07-24T13:30:47;21.90;99.90
50570;DHT22;36525;49.398;7.614;2023-07-24T13:33:14;21.60;99.90
50570;DHT22;36525;49.398;7.614;2023-07-24T13:35:42;21.60;99.90
50570;DHT22;36525;49.398;7.614;2023-07-24T13:38:09;21.50;99.90
50570;DHT22;36525;49.398;7.614;2023-07-24T13:40:36;21.30;99.90
50570;DHT22;36525;49.398;7.614;2023-07-24T13:43:03;21.10;99.90
50570;DHT22;36525;49.398;7.614;2023-07-24T13:45:31;20.80;99.90
50570;DHT22;36525;49.398;7.614;2023-07-24T13:47:58;20.70;99.90
50570;DHT22;36525;49.398;7.614;2023-07-24T13:50:28;21.30;99.90
50570;DHT22;36525;49.398;7.614;2023-07-24T13:52:55;21.90;99.90
50570;DHT22;36525;49.398;7.614;2023-07-24T13:55:22;22.60;99.90
50570;DHT22;36525;49.398;7.614;2023-07-24T13:57:49;23.10;99.90
50570;DHT22;36525;49.398;7.614;2023-07-24T14:00:17;23.40;99.90
50570;DHT22;36525;49.398;7.614;2023-07-24T14:02:44;23.50;99.90
50570;DHT22;36525;49.398;7.614;2023-07-24T14:05:11;24.30;99.90
50570;DHT22;36525;49.398;7.614;2023-07-24T14:07:40;24.60;99.90
50570;DHT22;36525;49.398;7.614;2023-07-24T14:10:08;24.90;99.90
50570;DHT22;36525;49.398;7.614;2023-07-24T14:12:36;24.80;99.90
50570;DHT22;36525;49.398;7.614;2023-07-24T14:15:04;24.80;99.90
50570;DHT22;36525;49.398;7.614;2023-07-24T14:17:32;24.30;99.90
50570;DHT22;36525;49.398;7.614;2023-07-24T14:20:02;23.80;99.90
50570;DHT22;36525;49.398;7.614;2023-07-24T14:22:29;23.20;99.90
50570;DHT22;36525;49.398;7.614;2023-07-24T14:24:56;22.90;99.90
50570;DHT22;36525;49.398;7.614;2023-07-24T14:27:23;22.20;99.90
50570;DHT22;36525;49.398;7.614;2023-07-24T14:29:50;22.00;99.90
50570;DHT22;36525;49.398;7.614;2023-07-24T14:32:17;22.20;99.90
50570;DHT22;36525;49.398;7.614;2023-07-24T14:34:49;22.20;99.90
50570;DHT22;36525;49.398;7.614;2023-07-24T14:37:17;22.00;99.90
50570;DHT22;36525;49.398;7.614;2023-07-24T14:39:44;21.60;99.90
50570;DHT22;36525;49.398;7.614;2023-07-24T14:42:12;21.40;99.90
50570;DHT22;36525;49.398;7.614;2023-07-24T14:44:41;21.00;99.90
50570;DHT22;36525;49.398;7.614;2023-07-24T14:47:08;20.60;99.90
50570;DHT22;36525;49.398;7.614;2023-07-24T14:49:35;20.60;99.90
50570;DHT22;36525;49.398;7.614;2023-07-24T14:52:02;20.40;99.90
50570;DHT22;36525;49.398;7.614;2023-07-24T14:54:30;20.50;99.90
50570;DHT22;36525;49.398;7.614;2023-07-24T14:56:58;20.90;99.90
50570;DHT22;36525;49.398;7.614;2023-07-24T14:59:44;21.20;99.90
50570;DHT22;36525;49.398;7.614;2023-07-24T15:02:11;21.30;99.90
50570;DHT22;36525;49.398;7.614;2023-07-24T15:04:38;21.20;99.90
50570;DHT22;36525;49.398;7.614;2023-07-24T15:07:05;21.10;99.90
50570;DHT22;36525;49.398;7.614;2023-07-24T15:09:32;20.90;99.90
50570;DHT22;36525;49.398;7.614;2023-07-24T15:11:59;21.10;99.90
50570;DHT22;36525;49.398;7.614;2023-07-24T15:14:27;20.90;99.90
50570;DHT22;36525;49.398;7.614;2023-07-24T15:16:54;21.10;99.90
50570;DHT22;36525;49.398;7.614;2023-07-24T15:19:21;21.20;99.90
50570;DHT22;36525;49.398;7.614;2023-07-24T15:21:48;22.40;99.90
50570;DHT22;36525;49.398;7.614;2023-07-24T15:24:15;22.70;99.90
50570;DHT22;36525;49.398;7.614;2023-07-24T15:26:45;22.60;99.90
50570;DHT22;36525;49.398;7.614;2023-07-24T15:29:12;22.80;99.90
50570;DHT22;36525;49.398;7.614;2023-07-24T15:31:45;23.00;99.90
50570;DHT22;36525;49.398;7.614;2023-07-24T15:34:12;23.20;99.90
50570;DHT22;36525;49.398;7.614;2023-07-24T15:36:39;23.70;99.90
50570;DHT22;36525;49.398;7.614;2023-07-24T15:39:06;24.00;99.90
50570;DHT22;36525;49.398;7.614;2023-07-24T15:41:33;24.30;99.90